sensor_id;sensor_type;location;lat;lon;timestamp;P1;durP1;ratioP1;P2;durP2;ratioP2
21806;SDS011;11065;50.786;7.840;2022-07-23T00:00:19;9.73;;;6.87;;
21806;SDS011;11065;50.786;7.840;2022-07-23T00:02:46;8.00;;;6.90;;
21806;SDS011;11065;50.786;7.840;2022-07-23T00:05:14;8.23;;;6.77;;
21806;SDS011;11065;50.786;7.840;2022-07-23T00:07:41;11.83;;;7.10;;
21806;SDS011;11065;50.786;7.840;2022-07-23T00:10:08;9.60;;;7.23;;
21806;SDS011;11065;50.786;7.840;2022-07-23T00:12:35;10.10;;;7.33;;
21806;SDS011;11065;50.786;7.840;2022-07-23T00:15:16;10.57;;;7.40;;
21806;SDS011;11065;50.786;7.840;2022-07-23T00:17:44;9.97;;;7.70;;
21806;SDS011;11065;50.786;7.840;2022-07-23T00:20:11;8.77;;;7.87;;
21806;SDS011;11065;50.786;7.840;2022-07-23T00:22:45;9.03;;;7.77;;
21806;SDS011;11065;50.786;7.840;2022-07-23T00:25:13;9.23;;;7.43;;
21806;SDS011;11065;50.786;7.840;2022-07-23T00:27:57;8.70;;;7.80;;
21806;SDS011;11065;50.786;7.840;2022-07-23T00:30:25;8.33;;;6.80;;
21806;SDS011;11065;50.786;7.840;2022-07-23T00:32:54;7.93;;;7.13;;
21806;SDS011;11065;50.786;7.840;2022-07-23T00:35:27;8.60;;;7.40;;
21806;SDS011;11065;50.786;7.840;2022-07-23T00:37:56;7.27;;;6.50;;
21806;SDS011;11065;50.786;7.840;2022-07-23T00:40:23;7.77;;;6.70;;
21806;SDS011;11065;50.786;7.840;2022-07-23T00:42:51;9.10;;;6.97;;
21806;SDS011;11065;50.786;7.840;2022-07-23T00:45:18;11.60;;;7.57;;
21806;SDS011;11065;50.786;7.840;2022-07-23T00:47:46;8.73;;;6.77;;
21806;SDS011;11065;50.786;7.840;2022-07-23T00:50:13;8.27;;;7.13;;
21806;SDS011;11065;50.786;7.840;2022-07-23T00:52:40;10.63;;;7.03;;
21806;SDS011;11065;50.786;7.840;2022-07-23T00:55:08;8.03;;;7.20;;
21806;SDS011;11065;50.786;7.840;2022-07-23T00:57:37;8.17;;;6.83;;
21806;SDS011;11065;50.786;7.840;2022-07-23T01:00:06;8.13;;;6.87;;
21806;SDS011;11065;50.786;7.840;2022-07-23T01:02:36;7.90;;;6.50;;
21806;SDS011;11065;50.786;7.840;2022-07-23T01:05:03;8.10;;;6.40;;
21806;SDS011;11065;50.786;7.840;2022-07-23T01:07:31;8.20;;;6.20;;
21806;SDS011;11065;50.786;7.840;2022-07-23T01:10:00;8.33;;;6.83;;
21806;SDS011;11065;50.786;7.840;2022-07-23T01:12:27;7.33;;;6.60;;
21806;SDS011;11065;50.786;7.840;2022-07-23T01:14:54;7.03;;;6.30;;
21806;SDS011;11065;50.786;7.840;2022-07-23T01:17:22;8.40;;;6.67;;
21806;SDS011;11065;50.786;7.840;2022-07-23T01:19:49;10.47;;;6.43;;
21806;SDS011;11065;50.786;7.840;2022-07-23T01:22:17;9.10;;;6.57;;
21806;SDS011;11065;50.786;7.840;2022-07-23T01:24:45;8.53;;;6.83;;
21806;SDS011;11065;50.786;7.840;2022-07-23T01:27:12;9.27;;;7.10;;
21806;SDS011;11065;50.786;7.840;2022-07-23T01:29:40;7.47;;;6.20;;
21806;SDS011;11065;50.786;7.840;2022-07-23T01:32:13;9.23;;;6.90;;
21806;SDS011;11065;50.786;7.840;2022-07-23T01:34:40;8.33;;;6.77;;
21806;SDS011;11065;50.786;7.840;2022-07-23T01:37:07;8.93;;;6.90;;
21806;SDS011;11065;50.786;7.840;2022-07-23T01:39:34;7.40;;;6.00;;
21806;SDS011;11065;50.786;7.840;2022-07-23T01:42:01;7.20;;;6.10;;
21806;SDS011;11065;50.786;7.840;2022-07-23T01:44:30;7.70;;;6.83;;
21806;SDS011;11065;50.786;7.840;2022-07-23T01:46:57;8.97;;;7.33;;
21806;SDS011;11065;50.786;7.840;2022-07-23T01:49:24;10.17;;;7.03;;
21806;SDS011;11065;50.786;7.840;2022-07-23T01:52:09;7.63;;;6.30;;
21806;SDS011;11065;50.786;7.840;2022-07-23T01:54:42;8.57;;;7.23;;
21806;SDS011;11065;50.786;7.840;2022-07-23T01:57:10;8.73;;;6.93;;
21806;SDS011;11065;50.786;7.840;2022-07-23T01:59:37;7.87;;;7.07;;
21806;SDS011;11065;50.786;7.840;2022-07-23T02:02:06;9.50;;;6.57;;
21806;SDS011;11065;50.786;7.840;2022-07-23T02:04:33;7.80;;;6.63;;
21806;SDS011;11065;50.786;7.840;2022-07-23T02:07:03;8.73;;;7.20;;
21806;SDS011;11065;50.786;7.840;2022-07-23T02:09:31;7.87;;;6.80;;
21806;SDS011;11065;50.786;7.840;2022-07-23T02:11:58;8.30;;;7.30;;
21806;SDS011;11065;50.786;7.840;2022-07-23T02:14:25;8.67;;;7.13;;
21806;SDS011;11065;50.786;7.840;2022-07-23T02:16:53;8.27;;;7.37;;
21806;SDS011;11065;50.786;7.840;2022-07-23T02:19:20;7.57;;;6.77;;
21806;SDS011;11065;50.786;7.840;2022-07-23T02:21:47;13.17;;;7.70;;
21806;SDS011;11065;50.786;7.840;2022-07-23T02:24:14;7.53;;;6.53;;
21806;SDS011;11065;50.786;7.840;2022-07-23T02:26:41;10.77;;;7.03;;
21806;SDS011;11065;50.786;7.840;2022-07-23T02:29:10;7.90;;;6.90;;
21806;SDS011;11065;50.786;7.840;2022-07-23T02:31:37;8.53;;;6.97;;
21806;SDS011;11065;50.786;7.840;2022-07-23T02:34:05;9.13;;;6.57;;
21806;SDS011;11065;50.786;7.840;2022-07-23T02:36:33;9.30;;;6.73;;
21806;SDS011;11065;50.786;7.840;2022-07-23T02:39:02;9.20;;;6.90;;
21806;SDS011;11065;50.786;7.840;2022-07-23T02:41:32;6.83;;;6.13;;
21806;SDS011;11065;50.786;7.840;2022-07-23T02:43:58;7.30;;;5.63;;
21806;SDS011;11065;50.786;7.840;2022-07-23T02:46:26;8.27;;;6.47;;
21806;SDS011;11065;50.786;7.840;2022-07-23T02:48:54;9.23;;;6.13;;
21806;SDS011;11065;50.786;7.840;2022-07-23T02:51:21;7.67;;;6.13;;
21806;SDS011;11065;50.786;7.840;2022-07-23T02:53:53;7.53;;;6.50;;
21806;SDS011;11065;50.786;7.840;2022-07-23T02:56:20;7.47;;;6.03;;
21806;SDS011;11065;50.786;7.840;2022-07-23T02:58:47;8.63;;;6.00;;
21806;SDS011;11065;50.786;7.840;2022-07-23T03:01:14;6.90;;;5.93;;
21806;SDS011;11065;50.786;7.840;2022-07-23T03:03:46;6.93;;;5.70;;
21806;SDS011;11065;50.786;7.840;2022-07-23T03:06:13;5.80;;;5.00;;
21806;SDS011;11065;50.786;7.840;2022-07-23T03:08:40;7.87;;;5.73;;
21806;SDS011;11065;50.786;7.840;2022-07-23T03:11:07;7.80;;;5.37;;
21806;SDS011;11065;50.786;7.840;2022-07-23T03:13:39;8.67;;;5.60;;
21806;SDS011;11065;50.786;7.840;2022-07-23T03:16:07;6.73;;;5.60;;
21806;SDS011;11065;50.786;7.840;2022-07-23T03:18:35;8.00;;;5.60;;
21806;SDS011;11065;50.786;7.840;2022-07-23T03:21:07;6.87;;;5.33;;
21806;SDS011;11065;50.786;7.840;2022-07-23T03:23:36;10.03;;;5.67;;
21806;SDS011;11065;50.786;7.840;2022-07-23T03:26:03;7.57;;;5.40;;
21806;SDS011;11065;50.786;7.840;2022-07-23T03:28:30;7.03;;;5.60;;
21806;SDS011;11065;50.786;7.840;2022-07-23T03:30:57;8.03;;;5.77;;
21806;SDS011;11065;50.786;7.840;2022-07-23T03:33:25;6.87;;;5.23;;
21806;SDS011;11065;50.786;7.840;2022-07-23T03:35:52;7.47;;;5.33;;
21806;SDS011;11065;50.786;7.840;2022-07-23T03:38:31;7.50;;;5.57;;
21806;SDS011;11065;50.786;7.840;2022-07-23T03:40:58;6.10;;;5.30;;
21806;SDS011;11065;50.786;7.840;2022-07-23T03:43:28;7.27;;;5.20;;
21806;SDS011;11065;50.786;7.840;2022-07-23T03:45:55;7.40;;;5.40;;
21806;SDS011;11065;50.786;7.840;2022-07-23T03:48:21;6.17;;;5.10;;
21806;SDS011;11065;50.786;7.840;2022-07-23T03:50:48;7.27;;;5.83;;
21806;SDS011;11065;50.786;7.840;2022-07-23T03:53:16;5.90;;;5.07;;
21806;SDS011;11065;50.786;7.840;2022-07-23T03:55:42;5.97;;;5.17;;
21806;SDS011;11065;50.786;7.840;2022-07-23T03:58:09;7.73;;;5.50;;
21806;SDS011;11065;50.786;7.840;2022-07-23T04:00:36;6.83;;;5.67;;
21806;SDS011;11065;50.786;7.840;2022-07-23T04:03:04;7.10;;;5.17;;
21806;SDS011;11065;50.786;7.840;2022-07-23T04:05:32;6.23;;;5.13;;
21806;SDS011;11065;50.786;7.840;2022-07-23T04:08:05;5.53;;;4.40;;
21806;SDS011;11065;50.786;7.840;2022-07-23T04:10:34;5.80;;;5.00;;
21806;SDS011;11065;50.786;7.840;2022-07-23T04:13:03;6.37;;;4.57;;
21806;SDS011;11065;50.786;7.840;2022-07-23T04:15:30;6.00;;;4.77;;
21806;SDS011;11065;50.786;7.840;2022-07-23T04:17:57;7.87;;;4.80;;
21806;SDS011;11065;50.786;7.840;2022-07-23T04:20:31;7.03;;;4.70;;
21806;SDS011;11065;50.786;7.840;2022-07-23T04:23:06;6.63;;;5.17;;
21806;SDS011;11065;50.786;7.840;2022-07-23T04:25:33;7.27;;;5.23;;
21806;SDS011;11065;50.786;7.840;2022-07-23T04:28:00;5.80;;;4.73;;
21806;SDS011;11065;50.786;7.840;2022-07-23T04:30:27;9.07;;;5.70;;
21806;SDS011;11065;50.786;7.840;2022-07-23T04:32:54;7.10;;;5.60;;
21806;SDS011;11065;50.786;7.840;2022-07-23T04:35:25;6.43;;;5.20;;
21806;SDS011;11065;50.786;7.840;2022-07-23T04:37:57;6.20;;;5.10;;
21806;SDS011;11065;50.786;7.840;2022-07-23T04:40:24;6.57;;;5.10;;
21806;SDS011;11065;50.786;7.840;2022-07-23T04:42:52;6.90;;;5.23;;
21806;SDS011;11065;50.786;7.840;2022-07-23T04:45:19;7.83;;;5.00;;
21806;SDS011;11065;50.786;7.840;2022-07-23T04:47:47;5.77;;;4.83;;
21806;SDS011;11065;50.786;7.840;2022-07-23T04:50:14;7.53;;;4.60;;
21806;SDS011;11065;50.786;7.840;2022-07-23T04:52:45;6.60;;;4.87;;
21806;SDS011;11065;50.786;7.840;2022-07-23T04:55:11;6.20;;;4.83;;
21806;SDS011;11065;50.786;7.840;2022-07-23T04:57:39;7.67;;;4.93;;
21806;SDS011;11065;50.786;7.840;2022-07-23T05:00:07;5.50;;;4.70;;
21806;SDS011;11065;50.786;7.840;2022-07-23T05:02:36;6.50;;;5.30;;
21806;SDS011;11065;50.786;7.840;2022-07-23T05:05:02;5.47;;;4.50;;
21806;SDS011;11065;50.786;7.840;2022-07-23T05:07:30;5.73;;;4.93;;
21806;SDS011;11065;50.786;7.840;2022-07-23T05:09:57;8.63;;;5.97;;
21806;SDS011;11065;50.786;7.840;2022-07-23T05:12:24;8.30;;;5.00;;
21806;SDS011;11065;50.786;7.840;2022-07-23T05:14:50;6.07;;;5.37;;
21806;SDS011;11065;50.786;7.840;2022-07-23T05:17:19;9.70;;;5.23;;
21806;SDS011;11065;50.786;7.840;2022-07-23T05:19:47;7.70;;;5.50;;
21806;SDS011;11065;50.786;7.840;2022-07-23T05:22:13;8.40;;;5.93;;
21806;SDS011;11065;50.786;7.840;2022-07-23T05:24:40;7.40;;;5.50;;
21806;SDS011;11065;50.786;7.840;2022-07-23T05:27:10;7.20;;;5.33;;
21806;SDS011;11065;50.786;7.840;2022-07-23T05:29:39;6.93;;;5.60;;
21806;SDS011;11065;50.786;7.840;2022-07-23T05:32:06;8.37;;;5.80;;
21806;SDS011;11065;50.786;7.840;2022-07-23T05:34:36;7.30;;;5.93;;
21806;SDS011;11065;50.786;7.840;2022-07-23T05:37:03;8.03;;;6.17;;
21806;SDS011;11065;50.786;7.840;2022-07-23T05:39:30;6.87;;;5.47;;
21806;SDS011;11065;50.786;7.840;2022-07-23T05:41:57;6.80;;;5.93;;
21806;SDS011;11065;50.786;7.840;2022-07-23T05:44:24;8.97;;;5.83;;
21806;SDS011;11065;50.786;7.840;2022-07-23T05:46:55;8.60;;;5.93;;
21806;SDS011;11065;50.786;7.840;2022-07-23T05:49:25;7.33;;;5.60;;
21806;SDS011;11065;50.786;7.840;2022-07-23T05:52:10;7.10;;;6.13;;
21806;SDS011;11065;50.786;7.840;2022-07-23T05:55:00;8.03;;;5.70;;
21806;SDS011;11065;50.786;7.840;2022-07-23T05:57:27;6.30;;;5.63;;
21806;SDS011;11065;50.786;7.840;2022-07-23T05:59:54;8.03;;;5.90;;
21806;SDS011;11065;50.786;7.840;2022-07-23T06:02:21;9.77;;;6.90;;
21806;SDS011;11065;50.786;7.840;2022-07-23T06:04:48;8.20;;;6.97;;
21806;SDS011;11065;50.786;7.840;2022-07-23T06:07:28;8.67;;;6.13;;
21806;SDS011;11065;50.786;7.840;2022-07-23T06:09:56;9.40;;;6.70;;
21806;SDS011;11065;50.786;7.840;2022-07-23T06:12:22;9.83;;;7.30;;
21806;SDS011;11065;50.786;7.840;2022-07-23T06:14:50;9.03;;;7.10;;
21806;SDS011;11065;50.786;7.840;2022-07-23T06:17:19;11.17;;;7.53;;
21806;SDS011;11065;50.786;7.840;2022-07-23T06:19:46;7.70;;;6.17;;
21806;SDS011;11065;50.786;7.840;2022-07-23T06:22:14;9.13;;;6.70;;
21806;SDS011;11065;50.786;7.840;2022-07-23T06:24:41;7.87;;;6.40;;
21806;SDS011;11065;50.786;7.840;2022-07-23T06:27:08;8.57;;;6.83;;
21806;SDS011;11065;50.786;7.840;2022-07-23T06:29:35;9.57;;;6.83;;
21806;SDS011;11065;50.786;7.840;2022-07-23T06:32:02;9.63;;;6.83;;
21806;SDS011;11065;50.786;7.840;2022-07-23T06:34:29;11.20;;;7.50;;
21806;SDS011;11065;50.786;7.840;2022-07-23T06:36:56;8.80;;;6.53;;
21806;SDS011;11065;50.786;7.840;2022-07-23T06:39:25;9.23;;;7.33;;
21806;SDS011;11065;50.786;7.840;2022-07-23T06:41:52;9.23;;;6.87;;
21806;SDS011;11065;50.786;7.840;2022-07-23T06:44:35;7.33;;;5.80;;
21806;SDS011;11065;50.786;7.840;2022-07-23T06:47:02;9.13;;;6.63;;
21806;SDS011;11065;50.786;7.840;2022-07-23T06:49:29;8.83;;;6.80;;
21806;SDS011;11065;50.786;7.840;2022-07-23T06:51:56;7.33;;;5.90;;
21806;SDS011;11065;50.786;7.840;2022-07-23T06:54:23;8.50;;;5.90;;
21806;SDS011;11065;50.786;7.840;2022-07-23T06:56:50;7.43;;;6.13;;
21806;SDS011;11065;50.786;7.840;2022-07-23T06:59:17;7.93;;;6.07;;
21806;SDS011;11065;50.786;7.840;2022-07-23T07:01:44;7.00;;;5.23;;
21806;SDS011;11065;50.786;7.840;2022-07-23T07:04:11;8.73;;;7.07;;
21806;SDS011;11065;50.786;7.840;2022-07-23T07:06:37;8.13;;;6.47;;
21806;SDS011;11065;50.786;7.840;2022-07-23T07:09:04;7.00;;;5.80;;
21806;SDS011;11065;50.786;7.840;2022-07-23T07:11:31;7.97;;;6.43;;
21806;SDS011;11065;50.786;7.840;2022-07-23T07:13:58;7.53;;;5.90;;
21806;SDS011;11065;50.786;7.840;2022-07-23T07:16:25;6.87;;;5.73;;
21806;SDS011;11065;50.786;7.840;2022-07-23T07:18:58;6.87;;;5.10;;
21806;SDS011;11065;50.786;7.840;2022-07-23T07:21:25;7.77;;;6.17;;
21806;SDS011;11065;50.786;7.840;2022-07-23T07:23:52;6.83;;;5.37;;
21806;SDS011;11065;50.786;7.840;2022-07-23T07:26:19;7.03;;;5.43;;
21806;SDS011;11065;50.786;7.840;2022-07-23T07:28:46;6.07;;;5.40;;
21806;SDS011;11065;50.786;7.840;2022-07-23T07:31:13;7.30;;;5.10;;
21806;SDS011;11065;50.786;7.840;2022-07-23T07:33:40;8.07;;;5.13;;
21806;SDS011;11065;50.786;7.840;2022-07-23T07:36:08;5.97;;;5.10;;
21806;SDS011;11065;50.786;7.840;2022-07-23T07:38:35;5.53;;;4.73;;
21806;SDS011;11065;50.786;7.840;2022-07-23T07:41:02;5.47;;;4.87;;
21806;SDS011;11065;50.786;7.840;2022-07-23T07:43:28;7.30;;;5.17;;
21806;SDS011;11065;50.786;7.840;2022-07-23T07:45:55;7.20;;;5.20;;
21806;SDS011;11065;50.786;7.840;2022-07-23T07:48:22;7.17;;;4.33;;
21806;SDS011;11065;50.786;7.840;2022-07-23T07:50:49;5.40;;;4.27;;
21806;SDS011;11065;50.786;7.840;2022-07-23T07:53:17;4.50;;;3.90;;
21806;SDS011;11065;50.786;7.840;2022-07-23T07:55:43;4.67;;;3.50;;
21806;SDS011;11065;50.786;7.840;2022-07-23T07:58:17;5.10;;;3.23;;
21806;SDS011;11065;50.786;7.840;2022-07-23T08:00:44;3.17;;;2.73;;
21806;SDS011;11065;50.786;7.840;2022-07-23T08:03:11;3.57;;;2.60;;
21806;SDS011;11065;50.786;7.840;2022-07-23T08:05:39;3.90;;;2.67;;
21806;SDS011;11065;50.786;7.840;2022-07-23T08:08:05;5.63;;;2.83;;
21806;SDS011;11065;50.786;7.840;2022-07-23T08:10:32;4.23;;;2.90;;
21806;SDS011;11065;50.786;7.840;2022-07-23T08:12:59;3.47;;;2.93;;
21806;SDS011;11065;50.786;7.840;2022-07-23T08:15:28;4.10;;;2.93;;
21806;SDS011;11065;50.786;7.840;2022-07-23T08:17:55;4.50;;;2.90;;
21806;SDS011;11065;50.786;7.840;2022-07-23T08:20:24;4.57;;;3.23;;
21806;SDS011;11065;50.786;7.840;2022-07-23T08:22:55;3.60;;;3.10;;
21806;SDS011;11065;50.786;7.840;2022-07-23T08:25:45;4.70;;;2.87;;
21806;SDS011;11065;50.786;7.840;2022-07-23T08:28:12;4.77;;;3.17;;
21806;SDS011;11065;50.786;7.840;2022-07-23T08:30:40;4.53;;;3.33;;
21806;SDS011;11065;50.786;7.840;2022-07-23T08:33:10;4.40;;;3.60;;
21806;SDS011;11065;50.786;7.840;2022-07-23T08:35:57;4.70;;;2.90;;
21806;SDS011;11065;50.786;7.840;2022-07-23T08:38:24;3.33;;;2.73;;
21806;SDS011;11065;50.786;7.840;2022-07-23T08:40:52;3.50;;;2.70;;
21806;SDS011;11065;50.786;7.840;2022-07-23T08:43:21;3.53;;;2.43;;
21806;SDS011;11065;50.786;7.840;2022-07-23T08:45:50;3.80;;;2.40;;
21806;SDS011;11065;50.786;7.840;2022-07-23T08:48:20;3.63;;;2.20;;
21806;SDS011;11065;50.786;7.840;2022-07-23T08:50:51;3.87;;;2.73;;
21806;SDS011;11065;50.786;7.840;2022-07-23T08:53:20;3.07;;;2.77;;
21806;SDS011;11065;50.786;7.840;2022-07-23T08:55:49;3.13;;;2.30;;
21806;SDS011;11065;50.786;7.840;2022-07-23T08:58:17;3.03;;;2.23;;
21806;SDS011;11065;50.786;7.840;2022-07-23T09:00:53;2.67;;;2.10;;
21806;SDS011;11065;50.786;7.840;2022-07-23T09:03:20;3.13;;;2.03;;
21806;SDS011;11065;50.786;7.840;2022-07-23T09:05:50;3.53;;;2.40;;
21806;SDS011;11065;50.786;7.840;2022-07-23T09:08:22;4.65;;;2.20;;
21806;SDS011;11065;50.786;7.840;2022-07-23T09:10:57;3.92;;;2.20;;
21806;SDS011;11065;50.786;7.840;2022-07-23T09:15:59;4.55;;;2.67;;
21806;SDS011;11065;50.786;7.840;2022-07-23T09:18:28;3.03;;;2.05;;
21806;SDS011;11065;50.786;7.840;2022-07-23T09:29:07;2.28;;;1.60;;
21806;SDS011;11065;50.786;7.840;2022-07-23T09:31:52;2.55;;;1.88;;
21806;SDS011;11065;50.786;7.840;2022-07-23T09:34:21;4.50;;;2.05;;
21806;SDS011;11065;50.786;7.840;2022-07-23T09:36:51;15.13;;;3.30;;
21806;SDS011;11065;50.786;7.840;2022-07-23T09:39:27;18.70;;;3.58;;
21806;SDS011;11065;50.786;7.840;2022-07-23T09:41:56;9.80;;;2.58;;
21806;SDS011;11065;50.786;7.840;2022-07-23T09:44:23;8.73;;;2.42;;
21806;SDS011;11065;50.786;7.840;2022-07-23T09:46:57;10.82;;;2.50;;
21806;SDS011;11065;50.786;7.840;2022-07-23T09:49:25;6.30;;;2.58;;
21806;SDS011;11065;50.786;7.840;2022-07-23T09:51:53;3.20;;;1.58;;
21806;SDS011;11065;50.786;7.840;2022-07-23T09:56:55;2.92;;;1.77;;
21806;SDS011;11065;50.786;7.840;2022-07-23T09:59:31;7.47;;;1.80;;
21806;SDS011;11065;50.786;7.840;2022-07-23T10:02:00;1.85;;;1.30;;
21806;SDS011;11065;50.786;7.840;2022-07-23T10:04:33;1.20;;;1.10;;
21806;SDS011;11065;50.786;7.840;2022-07-23T10:07:23;1.13;;;0.90;;
21806;SDS011;11065;50.786;7.840;2022-07-23T10:10:02;2.22;;;1.02;;
21806;SDS011;11065;50.786;7.840;2022-07-23T10:12:48;1.27;;;0.80;;
21806;SDS011;11065;50.786;7.840;2022-07-23T10:15:38;1.80;;;1.20;;
21806;SDS011;11065;50.786;7.840;2022-07-23T10:18:07;1.08;;;0.90;;
21806;SDS011;11065;50.786;7.840;2022-07-23T10:20:38;1.60;;;1.10;;
21806;SDS011;11065;50.786;7.840;2022-07-23T10:34:42;3.75;;;1.10;;
21806;SDS011;11065;50.786;7.840;2022-07-23T10:37:17;2.83;;;1.58;;
21806;SDS011;11065;50.786;7.840;2022-07-23T10:42:50;2.15;;;1.33;;
21806;SDS011;11065;50.786;7.840;2022-07-23T10:47:53;1.42;;;1.10;;
21806;SDS011;11065;50.786;7.840;2022-07-23T10:50:24;2.63;;;1.27;;
21806;SDS011;11065;50.786;7.840;2022-07-23T10:53:14;2.10;;;1.25;;
21806;SDS011;11065;50.786;7.840;2022-07-23T10:55:46;2.63;;;1.33;;
21806;SDS011;11065;50.786;7.840;2022-07-23T10:58:18;2.65;;;1.40;;
21806;SDS011;11065;50.786;7.840;2022-07-23T11:01:30;2.60;;;1.30;;
21806;SDS011;11065;50.786;7.840;2022-07-23T11:04:06;2.08;;;1.25;;
21806;SDS011;11065;50.786;7.840;2022-07-23T11:17:27;2.70;;;1.60;;
21806;SDS011;11065;50.786;7.840;2022-07-23T11:25:10;1.88;;;1.40;;
21806;SDS011;11065;50.786;7.840;2022-07-23T11:27:38;2.00;;;1.60;;
21806;SDS011;11065;50.786;7.840;2022-07-23T11:30:07;3.00;;;1.38;;
21806;SDS011;11065;50.786;7.840;2022-07-23T11:32:36;2.47;;;1.67;;
21806;SDS011;11065;50.786;7.840;2022-07-23T11:35:18;2.13;;;1.60;;
21806;SDS011;11065;50.786;7.840;2022-07-23T11:37:49;2.45;;;1.40;;
21806;SDS011;11065;50.786;7.840;2022-07-23T11:40:20;2.63;;;2.08;;
21806;SDS011;11065;50.786;7.840;2022-07-23T11:42:57;11.00;;;2.78;;
21806;SDS011;11065;50.786;7.840;2022-07-23T11:45:33;4.28;;;1.98;;
21806;SDS011;11065;50.786;7.840;2022-07-23T11:48:17;3.30;;;1.95;;
21806;SDS011;11065;50.786;7.840;2022-07-23T11:50:47;2.05;;;1.58;;
21806;SDS011;11065;50.786;7.840;2022-07-23T11:53:21;2.60;;;1.55;;
21806;SDS011;11065;50.786;7.840;2022-07-23T11:55:49;2.42;;;1.80;;
21806;SDS011;11065;50.786;7.840;2022-07-23T11:58:16;2.08;;;1.60;;
21806;SDS011;11065;50.786;7.840;2022-07-23T12:00:45;2.80;;;1.50;;
21806;SDS011;11065;50.786;7.840;2022-07-23T12:03:12;2.20;;;1.80;;
21806;SDS011;11065;50.786;7.840;2022-07-23T12:05:40;1.55;;;1.40;;
21806;SDS011;11065;50.786;7.840;2022-07-23T12:08:07;6.38;;;2.00;;
21806;SDS011;11065;50.786;7.840;2022-07-23T12:10:39;2.25;;;1.63;;
21806;SDS011;11065;50.786;7.840;2022-07-23T12:13:09;1.67;;;1.55;;
21806;SDS011;11065;50.786;7.840;2022-07-23T12:15:39;2.70;;;2.00;;
21806;SDS011;11065;50.786;7.840;2022-07-23T12:18:11;3.28;;;2.13;;
21806;SDS011;11065;50.786;7.840;2022-07-23T12:20:40;2.40;;;1.75;;
21806;SDS011;11065;50.786;7.840;2022-07-23T12:23:09;2.08;;;1.67;;
21806;SDS011;11065;50.786;7.840;2022-07-23T12:25:46;3.05;;;2.10;;
21806;SDS011;11065;50.786;7.840;2022-07-23T12:30:46;2.20;;;1.83;;
21806;SDS011;11065;50.786;7.840;2022-07-23T12:33:15;2.85;;;1.98;;
21806;SDS011;11065;50.786;7.840;2022-07-23T12:35:51;3.38;;;1.83;;
21806;SDS011;11065;50.786;7.840;2022-07-23T12:38:21;2.63;;;1.83;;
21806;SDS011;11065;50.786;7.840;2022-07-23T12:40:59;3.40;;;2.15;;
21806;SDS011;11065;50.786;7.840;2022-07-23T12:43:27;1.83;;;1.63;;
21806;SDS011;11065;50.786;7.840;2022-07-23T12:46:06;4.60;;;2.08;;
21806;SDS011;11065;50.786;7.840;2022-07-23T12:48:38;3.15;;;2.10;;
21806;SDS011;11065;50.786;7.840;2022-07-23T12:51:25;2.28;;;2.08;;
21806;SDS011;11065;50.786;7.840;2022-07-23T12:54:07;3.83;;;2.20;;
21806;SDS011;11065;50.786;7.840;2022-07-23T12:56:37;3.00;;;2.13;;
21806;SDS011;11065;50.786;7.840;2022-07-23T12:59:09;3.20;;;2.30;;
21806;SDS011;11065;50.786;7.840;2022-07-23T13:01:38;4.28;;;2.38;;
21806;SDS011;11065;50.786;7.840;2022-07-23T13:04:24;3.03;;;2.25;;
21806;SDS011;11065;50.786;7.840;2022-07-23T13:06:53;2.97;;;2.13;;
21806;SDS011;11065;50.786;7.840;2022-07-23T13:09:26;2.47;;;2.20;;
21806;SDS011;11065;50.786;7.840;2022-07-23T13:11:58;4.00;;;2.13;;
21806;SDS011;11065;50.786;7.840;2022-07-23T13:14:26;3.40;;;2.40;;
21806;SDS011;11065;50.786;7.840;2022-07-23T13:16:54;15.85;;;3.20;;
21806;SDS011;11065;50.786;7.840;2022-07-23T13:19:25;3.17;;;2.38;;
21806;SDS011;11065;50.786;7.840;2022-07-23T13:21:54;3.70;;;2.40;;
21806;SDS011;11065;50.786;7.840;2022-07-23T13:24:21;2.83;;;2.15;;
21806;SDS011;11065;50.786;7.840;2022-07-23T13:26:48;4.18;;;2.35;;
21806;SDS011;11065;50.786;7.840;2022-07-23T13:29:17;4.05;;;2.20;;
21806;SDS011;11065;50.786;7.840;2022-07-23T13:31:45;3.45;;;2.10;;
21806;SDS011;11065;50.786;7.840;2022-07-23T13:34:12;3.70;;;2.22;;
21806;SDS011;11065;50.786;7.840;2022-07-23T13:36:39;2.58;;;2.20;;
21806;SDS011;11065;50.786;7.840;2022-07-23T13:39:05;2.95;;;2.38;;
21806;SDS011;11065;50.786;7.840;2022-07-23T13:41:35;3.13;;;2.20;;
21806;SDS011;11065;50.786;7.840;2022-07-23T13:44:03;3.60;;;2.90;;
21806;SDS011;11065;50.786;7.840;2022-07-23T13:46:32;3.10;;;2.50;;
21806;SDS011;11065;50.786;7.840;2022-07-23T13:49:00;3.65;;;2.38;;
21806;SDS011;11065;50.786;7.840;2022-07-23T13:51:28;2.83;;;2.20;;
21806;SDS011;11065;50.786;7.840;2022-07-23T13:53:55;4.88;;;2.83;;
21806;SDS011;11065;50.786;7.840;2022-07-23T13:56:25;2.92;;;2.45;;
21806;SDS011;11065;50.786;7.840;2022-07-23T13:58:52;3.55;;;2.00;;
21806;SDS011;11065;50.786;7.840;2022-07-23T14:01:19;4.55;;;2.70;;
21806;SDS011;11065;50.786;7.840;2022-07-23T14:03:46;3.20;;;2.47;;
21806;SDS011;11065;50.786;7.840;2022-07-23T14:06:13;3.17;;;2.33;;
21806;SDS011;11065;50.786;7.840;2022-07-23T14:08:45;3.78;;;2.47;;
21806;SDS011;11065;50.786;7.840;2022-07-23T14:11:13;3.38;;;2.40;;
21806;SDS011;11065;50.786;7.840;2022-07-23T14:13:40;4.45;;;2.53;;
21806;SDS011;11065;50.786;7.840;2022-07-23T14:16:07;3.92;;;2.65;;
21806;SDS011;11065;50.786;7.840;2022-07-23T14:18:34;3.88;;;2.70;;
21806;SDS011;11065;50.786;7.840;2022-07-23T14:21:03;4.38;;;2.80;;
21806;SDS011;11065;50.786;7.840;2022-07-23T14:23:32;2.95;;;2.50;;
21806;SDS011;11065;50.786;7.840;2022-07-23T14:26:00;3.75;;;2.60;;
21806;SDS011;11065;50.786;7.840;2022-07-23T14:28:31;5.28;;;2.92;;
21806;SDS011;11065;50.786;7.840;2022-07-23T14:30:59;3.78;;;3.13;;
21806;SDS011;11065;50.786;7.840;2022-07-23T14:33:27;3.53;;;2.53;;
21806;SDS011;11065;50.786;7.840;2022-07-23T14:35:54;4.63;;;2.97;;
21806;SDS011;11065;50.786;7.840;2022-07-23T14:38:20;3.95;;;2.85;;
21806;SDS011;11065;50.786;7.840;2022-07-23T14:40:47;3.38;;;2.65;;
21806;SDS011;11065;50.786;7.840;2022-07-23T14:43:15;3.83;;;2.50;;
21806;SDS011;11065;50.786;7.840;2022-07-23T14:45:42;3.22;;;2.58;;
21806;SDS011;11065;50.786;7.840;2022-07-23T14:48:12;3.10;;;2.80;;
21806;SDS011;11065;50.786;7.840;2022-07-23T14:50:39;4.03;;;2.50;;
21806;SDS011;11065;50.786;7.840;2022-07-23T14:53:06;3.95;;;2.80;;
21806;SDS011;11065;50.786;7.840;2022-07-23T14:55:33;2.63;;;2.22;;
21806;SDS011;11065;50.786;7.840;2022-07-23T14:58:00;3.88;;;2.90;;
21806;SDS011;11065;50.786;7.840;2022-07-23T15:00:27;4.57;;;2.88;;
21806;SDS011;11065;50.786;7.840;2022-07-23T15:02:55;3.78;;;3.10;;
21806;SDS011;11065;50.786;7.840;2022-07-23T15:05:23;3.22;;;2.53;;
21806;SDS011;11065;50.786;7.840;2022-07-23T15:07:52;4.25;;;3.20;;
21806;SDS011;11065;50.786;7.840;2022-07-23T15:10:19;4.05;;;2.75;;
21806;SDS011;11065;50.786;7.840;2022-07-23T15:12:48;4.60;;;3.58;;
21806;SDS011;11065;50.786;7.840;2022-07-23T15:15:15;3.85;;;2.90;;
21806;SDS011;11065;50.786;7.840;2022-07-23T15:17:44;3.22;;;2.78;;
21806;SDS011;11065;50.786;7.840;2022-07-23T15:20:10;4.20;;;2.67;;
21806;SDS011;11065;50.786;7.840;2022-07-23T15:22:43;4.15;;;3.00;;
21806;SDS011;11065;50.786;7.840;2022-07-23T15:25:11;3.38;;;2.70;;
21806;SDS011;11065;50.786;7.840;2022-07-23T15:27:38;4.68;;;3.30;;
21806;SDS011;11065;50.786;7.840;2022-07-23T15:30:05;3.58;;;3.25;;
21806;SDS011;11065;50.786;7.840;2022-07-23T15:32:33;3.10;;;2.58;;
21806;SDS011;11065;50.786;7.840;2022-07-23T15:35:00;5.13;;;2.72;;
21806;SDS011;11065;50.786;7.840;2022-07-23T15:37:28;3.60;;;3.13;;
21806;SDS011;11065;50.786;7.840;2022-07-23T15:39:55;3.72;;;3.20;;
21806;SDS011;11065;50.786;7.840;2022-07-23T15:42:22;5.72;;;2.80;;
21806;SDS011;11065;50.786;7.840;2022-07-23T15:44:50;3.17;;;2.63;;
21806;SDS011;11065;50.786;7.840;2022-07-23T15:47:17;2.55;;;2.25;;
21806;SDS011;11065;50.786;7.840;2022-07-23T15:49:45;3.30;;;2.70;;